Flight Track Log - Related Links

Times and Time Zones

All times are in EDT time to prevent confusion due to time zone crossing. See the N72108 flight status page for this flight to view local times or setup timezone preferences in your user account.

Time Position Orientation Groundspeed Altitude Reporting Facility
EDT Latitude Longitude Course Direction KTS MPH feet Rate Location/Type
Fri 02:46:20 PM 36.1592 -92.5008 182° South 162 186 5,300  Level Memphis Center
Fri 02:47:20 PM 36.1256 -92.5025 182° South 143 165 5,800 500 Climbing Memphis Center
Fri 02:48:20 PM 36.0881 -92.5042 182° South 138 159 6,300 500 Climbing Memphis Center
Fri 02:49:20 PM 36.0525 -92.5058 186° South 138 159 6,800 500 Climbing Memphis Center
Fri 02:50:20 PM 36.0192 -92.5100 186° South 133 153 7,300 550 Climbing Memphis Center
Fri 02:51:20 PM 35.9836 -92.5144 189° South 133 153 7,900 350 Climbing Memphis Center
Fri 02:52:20 PM 35.9481 -92.5211 182° South 128 147 8,000  Climbing Memphis Center
Fri 02:53:20 PM 35.9083 -92.5225 185° South 133 153 7,900 -50 Descending Memphis Center
Fri 02:54:20 PM 35.8689 -92.5267 188° South 144 166 7,900  Level Memphis Center
Fri 02:55:20 PM 35.8289 -92.5333 187° South 144 166 7,900  Level Memphis Center
Fri 02:56:20 PM 35.7872 -92.5400 188° South 144 166 7,900  Level Memphis Center
Fri 02:57:20 PM 35.7475 -92.5467 187° South 144 166 7,900  Level Memphis Center
Fri 02:58:20 PM 35.7056 -92.5531 188° South 144 166 7,900  Level Memphis Center
Fri 02:59:21 PM 35.6658 -92.5597 187° South 144 166 7,900  Level Memphis Center
Fri 03:00:20 PM 35.6242 -92.5664 186° South 144 166 7,900  Level Memphis Center
Fri 03:01:20 PM 35.5928 -92.5706 187° South 144 166 7,900  Level Memphis Center
Fri 03:02:20 PM 35.5508 -92.5772 184° South 144 166 7,900  Level Memphis Center
Fri 03:03:20 PM 35.5092 -92.5811 182° South 144 166 7,900  Level Memphis Center
Fri 03:04:20 PM 35.4694 -92.5825 189° South 144 166 7,900  Level Memphis Center
Fri 03:05:07 PM 35.4339 -92.5892 184° South 146 168 7,900  Level Memphis Center
Fri 03:06:08 PM 35.3900 -92.5933 181° South 147 169 7,900  Level Memphis Center
Fri 03:07:15 PM 35.3461 -92.5944 185° South 145 167 7,900  Level Memphis Center
Fri 03:08:16 PM 35.3064 -92.5986 185° South 142 163 7,900 -50 Level Memphis Center
Fri 03:09:16 PM 35.2667 -92.6025 182° South 142 163 7,800  Descending Memphis Center
Fri 03:10:11 PM 35.2314 -92.6042 187° South 144 166 7,900 52 Climbing Memphis Center
Fri 03:11:12 PM 35.1894 -92.6108 185° South 144 166 7,900  Level Memphis Center
Fri 03:12:13 PM 35.1497 -92.6147 181° South 147 169 7,900  Level Memphis Center
Fri 03:13:20 PM 35.1058 -92.6161 187° South 144 166 7,900 -50 Level Memphis Center
Fri 03:14:14 PM 35.0619 -92.6225 182° South 149 171 7,800  Descending Memphis Center
Fri 03:15:21 PM 35.0203 -92.6239 179° South 145 167 7,900 48 Climbing Memphis Center
Fri 03:16:20 PM 34.9847 -92.6231 182° South 149 171 7,900  Level Memphis Center
Fri 03:17:20 PM 34.9431 -92.6244 184° South 149 171 7,900  Level Memphis Center
Fri 03:18:23 PM 34.8950 -92.6281 181° South 147 169 7,900  Level Memphis Center
Fri 03:19:24 PM 34.8511 -92.6294 189° South 147 169 7,900  Level Memphis Center
Fri 03:20:25 PM 34.8156 -92.6361 182° South 145 167 7,900 -50 Level Memphis Center
Fri 03:21:25 PM 34.7739 -92.6375 187° South 144 166 7,800  Descending Memphis Center
Fri 03:22:26 PM 34.7319 -92.6442 184° South 142 163 7,900 47 Climbing Memphis Center
Fri 03:23:33 PM 34.6900 -92.6481 185° South 142 163 7,900 -47 Level Memphis Center
Fri 03:24:33 PM 34.6525 -92.6519 190° South 141 162 7,800  Descending Memphis Center
Fri 03:25:34 PM 34.6106 -92.6608 184° South 142 163 7,900 42 Climbing Memphis Center
Fri 03:26:56 PM 34.5583 -92.6647 185° South 146 168 7,900  Level Memphis Center
Fri 03:27:56 PM 34.5208 -92.6686 185° South 146 168 7,900  Level Memphis Center
Fri 03:28:56 PM 34.4811 -92.6725 188° South 141 162 7,900  Level Memphis Center
Fri 03:29:56 PM 34.4414 -92.6792 188° South 141 162 7,900  Level Memphis Center
Fri 03:30:56 PM 34.4036 -92.6856 182° South 141 162 7,900  Level Memphis Center
Fri 03:31:56 PM 34.3639 -92.6872 191° South 141 162 7,900  Level Memphis Center
Fri 03:32:56 PM 34.3261 -92.6961 182° South 141 162 7,900  Level Memphis Center
Fri 03:33:56 PM 34.2886 -92.6975 182° South 141 162 7,900  Level Memphis Center
Fri 03:34:56 PM 34.2489 -92.6992 182° South 141 162 7,900  Level Memphis Center
Fri 03:35:56 PM 34.2114 -92.7006 179° South 141 162 7,900  Level Memphis Center
Fri 03:36:56 PM 34.1717 -92.6994 186° South 141 162 7,900  Level Memphis Center
Fri 03:37:56 PM 34.1361 -92.7036 182° South 141 162 7,900  Level Memphis Center
Fri 03:38:56 PM 34.0964 -92.7050 185° South 141 162 7,900  Level Memphis Center
Fri 03:39:56 PM 34.0567 -92.7089 185° South 141 162 7,900  Level Memphis Center
Fri 03:40:57 PM 34.0169 -92.7128 186° South 141 162 7,900  Level Memphis Center
Fri 03:42:46 PM 33.9481 -92.7217 186° South 136 157 7,900  Level Fort Worth Center
Fri 03:43:46 PM 33.9106 -92.7261 186° South 142 163 7,900  Level Fort Worth Center
Fri 03:44:46 PM 33.8711 -92.7308 179° South 142 163 7,900  Level Fort Worth Center
Fri 03:45:46 PM 33.8314 -92.7303 186° South 142 163 7,900  Level Fort Worth Center
Fri 03:46:46 PM 33.7919 -92.7350 182° South 142 163 7,900  Level Fort Worth Center
Fri 03:47:46 PM 33.7544 -92.7369 185° South 142 163 7,900 -50 Level Fort Worth Center
Fri 03:48:46 PM 33.7128 -92.7417 185° South 142 163 7,800 -350 Descending Fort Worth Center
Fri 03:49:46 PM 33.6714 -92.7464 183° South 142 163 7,200 -700 Descending Fort Worth Center
Fri 03:50:46 PM 33.6297 -92.7486 185° South 154 177 6,400 -750 Descending Fort Worth Center
Fri 03:51:46 PM 33.5861 -92.7533 188° South 154 177 5,700 -700 Descending Fort Worth Center
Fri 03:52:46 PM 33.5425 -92.7606 188° South 159 183 5,000 -750 Descending Fort Worth Center
Fri 03:53:46 PM 33.5011 -92.7678 191° South 159 183 4,200 -750 Descending Fort Worth Center
Fri 03:54:46 PM 33.4597 -92.7775 188° South 159 183 3,500 -750 Descending Fort Worth Center
Fri 03:55:46 PM 33.4203 -92.7844 183° South 159 183 2,700 -700 Descending Fort Worth Center
Fri 03:56:46 PM 33.3808 -92.7867 192° South 154 177 2,100 -450 Descending Fort Worth Center
Fri 03:57:46 PM 33.3436 -92.7961 179° South 148 170 1,800 -350 Descending Fort Worth Center
Fri 03:58:46 PM 33.3081 -92.7956 182° South 140 161 1,400 -300 Descending Fort Worth Center
Fri 03:59:46 PM 33.2747 -92.7972 182° South 140 161 1,200 1,300 Descending Fort Worth Center
Fri 04:00:46 PM 33.2372 -92.7992 183° South 140 161 4,000 1,400 Climbing Fort Worth Center
Fri 04:01:46 PM 33.1956 -92.8014 183° South 140 161 4,000  Level Fort Worth Center

Login

Don't have an account? Register now (free) for customized features, flight alerts, and more!